createdAt,value
2022-08-05T00:01:36.499Z,6.25
2022-08-05T00:04:19.864Z,5.75
2022-08-05T00:06:47.525Z,7.25
2022-08-05T00:09:19.827Z,5.82
2022-08-05T00:11:55.724Z,7.53
2022-08-05T00:14:29.295Z,6.22
2022-08-05T00:16:58.966Z,11.77
2022-08-05T00:19:33.627Z,8.48
2022-08-05T00:22:11.433Z,6.22
2022-08-05T00:24:42.356Z,5.87
2022-08-05T00:27:16.504Z,7.47
2022-08-05T00:29:56.565Z,6.18
2022-08-05T00:32:25.800Z,8.38
2022-08-05T00:35:06.848Z,5.37
2022-08-05T00:37:53.297Z,5.75
2022-08-05T00:40:27.910Z,8.27
2022-08-05T00:43:00.838Z,7.65
2022-08-05T00:45:38.905Z,5.78
2022-08-05T00:48:15.645Z,6.12
2022-08-05T00:50:46.160Z,5.22
2022-08-05T00:53:45.178Z,4.22
2022-08-05T00:56:05.560Z,5.93
2022-08-05T00:58:36.408Z,6.00
2022-08-05T01:01:08.506Z,5.00
2022-08-05T01:03:37.920Z,6.10
2022-08-05T01:06:06.164Z,6.00
2022-08-05T01:08:44.120Z,8.50
2022-08-05T01:11:36.976Z,5.05
2022-08-05T01:14:28.454Z,8.25
2022-08-05T01:17:40.284Z,5.43
2022-08-05T01:20:30.340Z,9.02
2022-08-05T01:23:35.597Z,5.30
2022-08-05T01:26:18.572Z,5.03
2022-08-05T01:28:47.279Z,6.32
2022-08-05T01:31:27.988Z,5.22
2022-08-05T01:34:26.682Z,4.85
2022-08-05T01:37:33.212Z,7.15
2022-08-05T01:40:05.622Z,6.43
2022-08-05T01:42:34.830Z,4.90
2022-08-05T01:45:03.336Z,6.57
2022-08-05T01:47:39.683Z,5.35
2022-08-05T01:50:31.459Z,5.95
2022-08-05T01:53:04.705Z,7.03
2022-08-05T01:55:36.315Z,5.22
2022-08-05T01:58:15.864Z,7.22
2022-08-05T02:00:50.643Z,8.73
2022-08-05T02:03:31.595Z,8.50
2022-08-05T02:06:03.358Z,7.87
2022-08-05T02:08:54.844Z,6.25
2022-08-05T02:11:33.456Z,5.62
2022-08-05T02:14:12.931Z,5.82
2022-08-05T02:16:53.108Z,6.72
2022-08-05T02:19:47.580Z,5.95
2022-08-05T02:22:30.119Z,6.10
2022-08-05T02:25:06.961Z,5.65
2022-08-05T02:27:58.281Z,6.15
2022-08-05T02:30:26.905Z,6.28
2022-08-05T02:32:55.961Z,9.25
2022-08-05T02:35:27.994Z,6.35
2022-08-05T02:38:02.418Z,6.40
2022-08-05T02:40:31.103Z,6.50
2022-08-05T02:42:59.914Z,6.50
2022-08-05T02:45:28.562Z,5.87
2022-08-05T02:48:16.636Z,16.35
2022-08-05T02:50:47.357Z,7.93
2022-08-05T02:53:19.319Z,7.20
2022-08-05T02:55:54.747Z,8.68
2022-08-05T02:58:30.076Z,7.80
2022-08-05T03:01:01.783Z,7.85
2022-08-05T03:03:33.653Z,5.70
2022-08-05T03:06:54.111Z,8.32
2022-08-05T03:08:52.350Z,6.53
2022-08-05T03:11:56.702Z,7.72
2022-08-05T03:14:13.664Z,6.75
2022-08-05T03:16:41.233Z,11.88
2022-08-05T03:19:17.385Z,10.70
2022-08-05T03:21:57.825Z,7.53
2022-08-05T03:24:30.011Z,9.57
2022-08-05T03:26:59.323Z,8.70
2022-08-05T03:29:45.734Z,7.68
2022-08-05T03:32:15.853Z,8.18
2022-08-05T03:34:50.719Z,8.90
2022-08-05T03:37:20.981Z,12.80
2022-08-05T03:39:59.395Z,6.15
2022-08-05T03:42:32.113Z,8.02
2022-08-05T03:45:01.844Z,7.72
2022-08-05T03:47:49.321Z,10.10
2022-08-05T03:50:17.089Z,7.18
2022-08-05T03:55:07.179Z,9.98
2022-08-05T03:56:05.295Z,7.25
2022-08-05T03:58:36.051Z,7.57
2022-08-05T04:01:07.317Z,9.43
2022-08-05T04:03:38.109Z,9.50
2022-08-05T04:06:06.626Z,8.23
2022-08-05T04:08:37.274Z,9.05
2022-08-05T04:11:08.481Z,9.52
2022-08-05T04:13:50.190Z,8.07
2022-08-05T04:16:24.979Z,7.70
2022-08-05T04:18:54.798Z,10.90
2022-08-05T04:22:05.187Z,10.65
2022-08-05T04:24:19.653Z,6.87
2022-08-05T04:26:50.409Z,6.12
2022-08-05T04:29:18.051Z,6.78
2022-08-05T04:31:46.289Z,7.97
2022-08-05T04:34:31.320Z,9.20
2022-08-05T04:39:31.312Z,8.10
2022-08-05T04:41:59.757Z,8.75
2022-08-05T04:44:29.924Z,6.93
2022-08-05T04:46:59.172Z,7.18
2022-08-05T04:49:39.196Z,10.57
2022-08-05T04:52:16.009Z,6.78
2022-08-05T04:54:43.686Z,6.85
2022-08-05T04:57:11.078Z,7.00
2022-08-05T04:59:40.788Z,9.88
2022-08-05T05:02:41.270Z,8.80
2022-08-05T05:05:01.606Z,8.57
2022-08-05T05:07:32.728Z,8.55
2022-08-05T05:10:06.306Z,6.05
2022-08-05T05:12:34.304Z,8.32
2022-08-05T05:15:05.579Z,7.57
2022-08-05T05:17:56.219Z,7.95
2022-08-05T05:20:28.420Z,7.40
2022-08-05T05:22:58.263Z,7.25
2022-08-05T05:25:40.469Z,7.82
2022-08-05T05:28:10.171Z,8.60
2022-08-05T05:30:38.665Z,10.13
2022-08-05T05:33:16.019Z,11.18
2022-08-05T05:35:46.863Z,9.40
2022-08-05T05:38:27.113Z,6.35
2022-08-05T05:40:58.276Z,7.87
2022-08-05T05:43:54.034Z,7.90
2022-08-05T05:46:17.541Z,8.20
2022-08-05T05:48:48.690Z,7.72
2022-08-05T05:51:23.719Z,7.37
2022-08-05T05:56:32.271Z,7.35
2022-08-05T06:01:37.447Z,9.65
2022-08-05T06:04:08.273Z,7.07
2022-08-05T06:06:42.727Z,10.20
2022-08-05T06:09:16.975Z,8.45
2022-08-05T06:12:02.023Z,6.40
2022-08-05T06:14:31.382Z,6.53
2022-08-05T06:16:59.157Z,6.40
2022-08-05T06:19:34.568Z,8.77
2022-08-05T06:22:04.659Z,5.28
2022-08-05T06:24:35.094Z,4.50
2022-08-05T06:27:04.069Z,5.47
2022-08-05T06:29:46.577Z,5.65
2022-08-05T06:32:25.675Z,8.38
2022-08-05T06:34:56.804Z,6.05
2022-08-05T06:37:55.623Z,9.13
2022-08-05T06:40:18.044Z,7.18
2022-08-05T06:42:52.069Z,4.65
2022-08-05T06:45:44.823Z,6.97
2022-08-05T06:48:44.334Z,7.12
2022-08-05T06:51:00.164Z,6.85
2022-08-05T06:53:29.002Z,5.18
2022-08-05T06:55:58.540Z,9.88
2022-08-05T06:58:34.911Z,7.40
2022-08-05T07:01:07.171Z,5.95
2022-08-05T07:03:35.109Z,8.95
2022-08-05T07:06:13.946Z,9.80
2022-08-05T07:08:47.637Z,7.85
2022-08-05T07:11:22.468Z,6.75
2022-08-05T07:14:20.249Z,5.43
2022-08-05T07:18:01.691Z,6.07
2022-08-05T07:20:34.094Z,5.25
2022-08-05T07:22:38.107Z,10.38
2022-08-05T07:25:21.780Z,5.65
2022-08-05T07:27:56.617Z,4.90
2022-08-05T07:30:32.812Z,8.35
2022-08-05T07:33:04.987Z,5.72
2022-08-05T07:36:03.791Z,5.80
2022-08-05T07:38:32.942Z,8.80
2022-08-05T07:42:06.798Z,5.10
2022-08-05T07:43:58.929Z,5.22
2022-08-05T07:46:27.816Z,9.05
2022-08-05T07:49:01.471Z,7.43
2022-08-05T07:51:52.975Z,7.30
2022-08-05T07:54:31.598Z,5.47
2022-08-05T07:57:41.997Z,5.05
2022-08-05T07:59:49.860Z,4.15
2022-08-05T08:02:18.237Z,5.90
2022-08-05T08:04:47.464Z,8.98
2022-08-05T08:07:15.729Z,5.75
2022-08-05T08:09:43.616Z,6.82
2022-08-05T08:12:33.446Z,5.55
2022-08-05T08:15:02.573Z,11.55
2022-08-05T08:17:32.318Z,5.72
2022-08-05T08:20:22.726Z,7.05
2022-08-05T08:22:52.146Z,5.47
2022-08-05T08:25:27.006Z,5.65
2022-08-05T08:28:07.455Z,3.83
2022-08-05T08:30:47.807Z,6.80
2022-08-05T08:33:19.173Z,7.70
2022-08-05T08:35:53.042Z,4.25
2022-08-05T08:38:36.145Z,5.20
2022-08-05T08:41:10.442Z,5.65
2022-08-05T08:45:18.347Z,3.80
2022-08-05T08:46:32.065Z,5.20
2022-08-05T08:50:06.070Z,3.75
2022-08-05T08:52:03.412Z,11.02
2022-08-05T08:54:36.392Z,4.53
2022-08-05T08:57:11.190Z,7.03
2022-08-05T08:59:41.928Z,5.68
2022-08-05T09:02:20.909Z,5.68
2022-08-05T09:05:16.297Z,4.00
2022-08-05T09:07:57.602Z,7.00
2022-08-05T09:10:27.811Z,5.25
2022-08-05T09:13:04.515Z,6.87
2022-08-05T09:15:37.168Z,5.10
2022-08-05T09:18:10.027Z,7.78
2022-08-05T09:20:44.573Z,6.50
2022-08-05T09:23:19.971Z,6.75
2022-08-05T09:26:00.970Z,4.03
2022-08-05T09:28:33.846Z,6.62
2022-08-05T09:31:22.387Z,6.18
2022-08-05T09:33:56.254Z,5.05
2022-08-05T09:36:27.661Z,5.25
2022-08-05T09:39:02.353Z,6.87
2022-08-05T09:41:33.142Z,7.70
2022-08-05T09:44:05.786Z,7.82
2022-08-05T09:46:35.074Z,4.78
2022-08-05T09:49:19.017Z,6.97
2022-08-05T09:51:49.380Z,7.20
2022-08-05T09:54:28.995Z,7.00
2022-08-05T09:57:01.342Z,9.35
2022-08-05T09:59:35.077Z,8.10
2022-08-05T10:02:05.318Z,4.90
2022-08-05T10:04:38.520Z,8.18
2022-08-05T10:07:20.575Z,6.87
2022-08-05T10:10:04.147Z,6.45
2022-08-05T10:12:50.078Z,7.30
2022-08-05T10:15:25.834Z,5.12
2022-08-05T10:18:13.652Z,3.90
2022-08-05T10:20:47.828Z,4.93
2022-08-05T10:23:55.259Z,3.58
2022-08-05T10:26:14.180Z,5.35
2022-08-05T10:28:45.150Z,5.78
2022-08-05T10:32:49.585Z,4.28
2022-08-05T10:34:04.139Z,6.28
2022-08-05T10:36:39.054Z,5.87
2022-08-05T10:39:25.231Z,5.93
2022-08-05T10:42:18.417Z,4.50
2022-08-05T10:44:46.563Z,4.15
2022-08-05T10:47:26.574Z,5.25
2022-08-05T10:50:32.455Z,4.85
2022-08-05T10:52:58.499Z,5.20
2022-08-05T10:55:27.056Z,4.78
2022-08-05T10:58:11.656Z,4.32
2022-08-05T11:00:46.562Z,6.00
2022-08-05T11:03:23.574Z,5.68
2022-08-05T11:06:05.114Z,3.90
2022-08-05T11:08:38.027Z,5.20
2022-08-05T11:11:44.563Z,6.65
2022-08-05T11:14:13.817Z,5.37
2022-08-05T11:16:56.066Z,4.03
2022-08-05T11:20:10.938Z,6.12
2022-08-05T11:22:44.199Z,5.00
2022-08-05T11:26:04.993Z,4.00
2022-08-05T11:28:36.019Z,4.50
2022-08-05T11:31:06.143Z,5.07
2022-08-05T11:33:46.573Z,5.90
2022-08-05T11:36:34.541Z,5.93
2022-08-05T11:39:06.890Z,3.92
2022-08-05T11:42:01.689Z,3.85
2022-08-05T11:44:52.780Z,4.68
2022-08-05T11:47:18.632Z,7.32
2022-08-05T11:49:56.239Z,3.50
2022-08-05T11:52:29.485Z,3.80
2022-08-05T11:54:58.985Z,5.50
2022-08-05T11:58:08.624Z,4.53
2022-08-05T12:00:27.601Z,5.22
2022-08-05T12:02:56.740Z,3.55
2022-08-05T12:05:36.108Z,4.50
2022-08-05T12:08:11.536Z,3.67
2022-08-05T12:10:46.551Z,5.57
2022-08-05T12:13:27.773Z,3.53
2022-08-05T12:16:14.973Z,4.10
2022-08-05T12:18:52.317Z,6.47
2022-08-05T12:21:32.461Z,6.25
2022-08-05T12:24:09.304Z,4.28
2022-08-05T12:26:55.063Z,5.28
2022-08-05T12:29:24.991Z,5.00
2022-08-05T12:32:02.052Z,5.35
2022-08-05T12:34:35.684Z,6.20
2022-08-05T12:37:17.575Z,5.28
2022-08-05T12:39:51.790Z,7.65
2022-08-05T12:42:21.585Z,8.75
2022-08-05T12:45:00.942Z,6.70
2022-08-05T12:47:30.571Z,4.00
2022-08-05T12:50:03.354Z,4.30
2022-08-05T12:52:39.443Z,5.72
2022-08-05T12:55:22.352Z,17.90
2022-08-05T12:58:50.580Z,5.57
2022-08-05T13:02:04.442Z,13.70
2022-08-05T13:03:34.485Z,5.12
2022-08-05T13:06:12.557Z,7.75
2022-08-05T13:08:40.548Z,4.75
2022-08-05T13:11:17.563Z,6.93
2022-08-05T13:14:24.957Z,5.70
2022-08-05T13:17:10.582Z,5.47
2022-08-05T13:19:52.337Z,6.30
2022-08-05T13:22:29.711Z,4.87
2022-08-05T13:25:00.671Z,8.00
2022-08-05T13:27:37.421Z,7.15
2022-08-05T13:30:35.656Z,5.15
2022-08-05T13:33:02.241Z,6.57
2022-08-05T13:35:42.620Z,4.93
2022-08-05T13:38:28.509Z,5.07
2022-08-05T13:43:44.304Z,4.65
2022-08-05T13:46:14.242Z,5.12
2022-08-05T13:48:58.127Z,9.18
2022-08-05T13:51:40.276Z,5.25
2022-08-05T13:54:12.882Z,3.80
2022-08-05T13:56:50.759Z,4.37
2022-08-05T13:59:25.123Z,7.40
2022-08-05T14:02:00.146Z,5.75
2022-08-05T14:04:51.183Z,3.78
2022-08-05T14:08:00.348Z,4.87
2022-08-05T14:10:18.697Z,4.90
2022-08-05T14:12:55.387Z,5.03
2022-08-05T14:16:09.007Z,8.23
2022-08-05T14:18:14.714Z,4.57
2022-08-05T14:20:48.822Z,3.50
2022-08-05T14:23:23.964Z,6.65
2022-08-05T14:25:58.773Z,5.00
2022-08-05T14:28:28.390Z,4.65
2022-08-05T14:31:00.763Z,5.90
2022-08-05T14:33:56.514Z,4.70
2022-08-05T14:36:20.566Z,6.80
2022-08-05T14:38:50.679Z,6.18
2022-08-05T14:41:18.721Z,4.57
2022-08-05T14:43:59.372Z,9.70
2022-08-05T14:46:30.870Z,5.45
2022-08-05T14:49:06.249Z,5.72
2022-08-05T14:51:39.046Z,5.25
2022-08-05T14:54:28.440Z,6.28
2022-08-05T14:56:58.524Z,6.72
2022-08-05T14:59:29.146Z,4.90
2022-08-05T15:01:58.014Z,4.07
2022-08-05T15:04:27.306Z,4.55
2022-08-05T15:06:56.475Z,5.95
2022-08-05T15:09:51.998Z,4.25
2022-08-05T15:12:17.042Z,3.60
2022-08-05T15:14:49.567Z,4.37
2022-08-05T15:17:45.602Z,4.03
2022-08-05T15:20:15.529Z,6.05
2022-08-05T15:22:45.306Z,7.25
2022-08-05T15:25:14.294Z,6.25
2022-08-05T15:27:52.319Z,6.05
2022-08-05T15:30:20.264Z,6.40
2022-08-05T15:32:49.961Z,4.78
2022-08-05T15:35:17.672Z,5.82
2022-08-05T15:38:32.562Z,4.57
2022-08-05T15:41:04.162Z,6.32
2022-08-05T15:43:24.737Z,4.12
2022-08-05T15:46:00.564Z,6.22
2022-08-05T15:48:30.068Z,4.45
2022-08-05T15:50:58.303Z,16.40
2022-08-05T15:53:38.146Z,7.30
2022-08-05T15:56:18.584Z,6.45
2022-08-05T15:58:46.716Z,5.43
2022-08-05T16:01:17.044Z,4.00
2022-08-05T16:03:50.475Z,4.97
2022-08-05T16:06:20.179Z,5.70
2022-08-05T16:08:51.012Z,4.57
2022-08-05T16:11:43.123Z,6.15
2022-08-05T16:14:08.996Z,5.50
2022-08-05T16:16:36.731Z,10.02
2022-08-05T16:19:04.591Z,5.47
2022-08-05T16:21:58.843Z,5.00
2022-08-05T16:24:40.547Z,7.22
2022-08-05T16:27:07.706Z,5.97
2022-08-05T16:29:37.138Z,5.12
2022-08-05T16:32:09.533Z,4.05
2022-08-05T16:34:39.418Z,5.65
2022-08-05T16:38:11.925Z,4.85
2022-08-05T16:40:26.709Z,5.87
2022-08-05T16:42:56.520Z,5.97
2022-08-05T16:46:06.939Z,5.03
2022-08-05T16:48:12.010Z,4.85
2022-08-05T16:50:54.486Z,6.22
2022-08-05T16:53:32.365Z,5.87
2022-08-05T16:56:10.511Z,6.03
2022-08-05T16:58:40.749Z,8.07
2022-08-05T17:01:09.371Z,5.65
2022-08-05T17:03:38.965Z,6.78
2022-08-05T17:06:07.161Z,5.75
2022-08-05T17:08:52.281Z,6.22
2022-08-05T17:11:23.363Z,5.37
2022-08-05T17:14:05.517Z,8.25
2022-08-05T17:16:36.335Z,7.28
2022-08-05T17:19:09.426Z,6.75
2022-08-05T17:21:39.340Z,4.53
2022-08-05T17:24:18.659Z,9.20
2022-08-05T17:26:58.354Z,4.40
2022-08-05T17:29:32.780Z,4.40
2022-08-05T17:32:02.032Z,11.12
2022-08-05T17:34:32.619Z,17.30
2022-08-05T17:37:02.581Z,9.27
2022-08-05T17:39:34.670Z,10.20
2022-08-05T17:42:17.633Z,10.68
2022-08-05T17:44:50.245Z,58.72
2022-08-05T17:47:22.462Z,56.55
2022-08-05T17:49:59.570Z,20.50
2022-08-05T17:52:30.906Z,14.35
2022-08-05T17:54:58.744Z,17.65
2022-08-05T17:57:26.192Z,10.55
2022-08-05T18:00:03.457Z,16.87
2022-08-05T18:02:34.271Z,11.93
2022-08-05T18:05:06.984Z,24.02
2022-08-05T18:07:41.695Z,22.40
2022-08-05T18:10:11.463Z,17.52
2022-08-05T18:12:41.854Z,16.58
2022-08-05T18:15:09.875Z,16.58
2022-08-05T18:17:58.683Z,21.50
2022-08-05T18:20:29.646Z,16.27
2022-08-05T18:23:04.901Z,13.30
2022-08-05T18:25:44.064Z,11.00
2022-08-05T18:28:17.575Z,12.45
2022-08-05T18:30:50.755Z,13.30
2022-08-05T18:33:22.680Z,24.27
2022-08-05T18:36:03.983Z,9.27
2022-08-05T18:38:36.296Z,15.63
2022-08-05T18:41:55.403Z,22.67
2022-08-05T18:43:52.853Z,12.52
2022-08-05T18:46:20.830Z,20.70
2022-08-05T18:48:51.903Z,9.52
2022-08-05T18:52:05.456Z,36.08
2022-08-05T18:54:28.330Z,17.33
2022-08-05T18:57:01.056Z,12.43
2022-08-05T18:59:43.777Z,8.95
2022-08-05T19:02:27.524Z,17.73
2022-08-05T19:05:02.560Z,9.63
2022-08-05T19:07:50.113Z,12.00
2022-08-05T19:10:26.525Z,10.13
2022-08-05T19:12:54.563Z,11.77
2022-08-05T19:15:57.766Z,14.93
2022-08-05T19:18:20.992Z,18.60
2022-08-05T19:20:53.979Z,20.00
2022-08-05T19:24:03.339Z,13.77
2022-08-05T19:26:11.167Z,14.35
2022-08-05T19:28:43.366Z,12.18
2022-08-05T19:31:18.070Z,10.38
2022-08-05T19:33:56.533Z,11.50
2022-08-05T19:36:26.306Z,11.80
2022-08-05T19:39:00.555Z,12.80
2022-08-05T19:44:18.707Z,21.17
2022-08-05T19:46:46.887Z,11.60
2022-08-05T19:49:16.984Z,13.20
2022-08-05T19:52:05.013Z,9.85
2022-08-05T19:54:34.813Z,12.73
2022-08-05T19:57:06.500Z,15.07
2022-08-05T19:59:56.736Z,7.30
2022-08-05T20:02:25.911Z,9.45
2022-08-05T20:04:58.747Z,6.78
2022-08-05T20:07:47.469Z,7.70
2022-08-05T20:10:17.482Z,8.15
2022-08-05T20:12:49.069Z,8.52
2022-08-05T20:15:23.165Z,12.57
2022-08-05T20:18:10.251Z,6.30
2022-08-05T20:20:56.619Z,7.25
2022-08-05T20:23:40.551Z,7.37
2022-08-05T20:26:16.340Z,8.77
2022-08-05T20:28:48.165Z,7.72
2022-08-05T20:31:21.753Z,7.85
2022-08-05T20:33:51.663Z,9.23
2022-08-05T20:36:21.420Z,8.88
2022-08-05T20:38:54.227Z,8.20
2022-08-05T20:41:43.805Z,9.38
2022-08-05T20:44:18.978Z,8.82
2022-08-05T20:49:25.883Z,6.95
2022-08-05T20:51:54.460Z,11.63
2022-08-05T20:54:24.713Z,9.95
2022-08-05T20:56:53.010Z,9.10
2022-08-05T20:59:27.006Z,7.68
2022-08-05T21:02:08.214Z,6.78
2022-08-05T21:04:38.229Z,7.10
2022-08-05T21:07:05.674Z,7.85
2022-08-05T21:09:37.213Z,8.10
2022-08-05T21:12:19.786Z,7.03
2022-08-05T21:14:47.581Z,9.32
2022-08-05T21:17:14.951Z,7.75
2022-08-05T21:19:47.159Z,7.37
2022-08-05T21:22:18.492Z,11.65
2022-08-05T21:24:51.527Z,8.65
2022-08-05T21:27:25.560Z,8.63
2022-08-05T21:29:56.335Z,10.10
2022-08-05T21:32:27.008Z,7.00
2022-08-05T21:35:08.946Z,8.23
2022-08-05T21:37:49.671Z,7.00
2022-08-05T21:40:22.609Z,8.30
2022-08-05T21:42:53.573Z,7.15
2022-08-05T21:45:25.104Z,6.95
2022-08-05T21:48:10.185Z,9.07
2022-08-05T21:50:41.997Z,8.10
2022-08-05T21:53:20.901Z,9.68
2022-08-05T21:56:05.423Z,7.10
2022-08-05T21:58:42.113Z,8.18
2022-08-05T22:01:10.617Z,7.28
2022-08-05T22:03:52.229Z,7.55
2022-08-05T22:06:23.002Z,9.02
2022-08-05T22:09:14.798Z,6.60
2022-08-05T22:11:43.599Z,10.32
2022-08-05T22:14:35.696Z,9.18
2022-08-05T22:17:06.572Z,10.27
2022-08-05T22:20:01.265Z,11.10
2022-08-05T22:22:27.977Z,10.05
2022-08-05T22:25:18.212Z,7.28
2022-08-05T22:28:08.306Z,9.60
2022-08-05T22:30:44.057Z,8.35
2022-08-05T22:33:57.848Z,5.55
2022-08-05T22:36:16.676Z,7.35
2022-08-05T22:38:48.095Z,7.82
2022-08-05T22:41:26.475Z,6.97
2022-08-05T22:44:06.955Z,7.90
2022-08-05T22:46:39.479Z,9.80
2022-08-05T22:49:12.178Z,6.37
2022-08-05T22:52:06.718Z,8.68
2022-08-05T22:54:36.459Z,8.30
2022-08-05T22:57:05.829Z,7.55
2022-08-05T22:59:43.833Z,7.32
2022-08-05T23:02:16.591Z,8.23
2022-08-05T23:04:52.039Z,7.75
2022-08-05T23:07:22.019Z,7.82
2022-08-05T23:09:57.333Z,6.80
2022-08-05T23:12:32.962Z,8.55
2022-08-05T23:15:03.536Z,6.87
2022-08-05T23:17:37.188Z,10.38
2022-08-05T23:20:16.385Z,6.43
2022-08-05T23:22:47.666Z,5.78
2022-08-05T23:25:51.955Z,6.87
2022-08-05T23:28:06.885Z,7.57
2022-08-05T23:30:39.948Z,7.80
2022-08-05T23:33:22.047Z,6.62
2022-08-05T23:35:56.188Z,8.25
2022-08-05T23:38:25.968Z,5.12
2022-08-05T23:40:54.226Z,6.87
2022-08-05T23:43:25.229Z,7.78
2022-08-05T23:46:20.226Z,7.72
2022-08-05T23:49:00.277Z,4.57
2022-08-05T23:51:53.785Z,7.30
2022-08-05T23:54:33.971Z,5.28
2022-08-05T23:57:06.928Z,8.02
